Time;durP1;ratioP1;P1;durP2;ratioP2;P2;SDS_P1;SDS_P2;PMS_P1;PMS_P2;Temp;Humidity;BMP_temperature;BMP_pressure;BME280_temperature;BME280_humidity;BME280_pressure;Samples;Min_cycle;Max_cycle;Signal;HPM_P1;HPM_P2
2023/08/19 00:01:09;;;;;;;2.30;0.80;;;15.00;45.40;;;;;;5054837;28;20017;-78
2023/08/19 00:03:37;;;;;;;2.88;0.73;;;15.10;45.70;;;;;;5054687;28;20403;-77
2023/08/19 00:06:30;;;;;;;1.80;0.85;;;15.20;45.50;;;;;;5054671;28;20032;-78
2023/08/19 00:08:58;;;;;;;3.42;0.60;;;15.20;43.80;;;;;;5054059;28;20029;-78
2023/08/19 00:11:25;;;;;;;3.03;0.80;;;15.30;43.60;;;;;;5053960;28;20029;-78
2023/08/19 00:13:53;;;;;;;3.92;0.80;;;15.20;43.90;;;;;;5053981;28;20371;-79
2023/08/19 00:16:20;;;;;;;3.90;0.77;;;15.30;43.50;;;;;;5053759;28;20049;-77
2023/08/19 00:18:48;;;;;;;1.33;0.80;;;15.50;43.60;;;;;;5053279;28;20492;-77
2023/08/19 00:21:16;;;;;;;4.03;0.85;;;15.60;43.90;;;;;;5054032;28;20107;-77
2023/08/19 00:23:43;;;;;;;2.45;0.95;;;15.70;43.10;;;;;;5053537;28;20108;-78
2023/08/19 00:26:12;;;;;;;4.30;1.50;;;15.70;42.90;;;;;;5053513;28;20021;-78
2023/08/19 00:28:42;;;;;;;2.35;0.85;;;15.90;42.50;;;;;;5053518;28;20033;-77
2023/08/19 00:31:10;;;;;;;3.40;1.00;;;16.00;41.30;;;;;;5053651;28;20032;-77
2023/08/19 00:33:37;;;;;;;3.17;0.65;;;16.10;42.60;;;;;;5053474;28;20106;-77
2023/08/19 00:36:05;;;;;;;2.88;1.10;;;16.20;41.50;;;;;;5052076;28;20353;-79
2023/08/19 00:38:32;;;;;;;2.13;0.63;;;16.20;41.60;;;;;;5053167;28;20375;-78
2023/08/19 00:41:02;;;;;;;3.75;0.85;;;16.30;41.10;;;;;;5053006;28;20059;-77
2023/08/19 00:43:32;;;;;;;3.80;1.05;;;16.30;40.60;;;;;;5053171;28;20111;-78
2023/08/19 00:45:59;;;;;;;3.47;0.60;;;16.20;40.90;;;;;;5052905;28;20025;-79
2023/08/19 00:48:27;;;;;;;11.85;1.17;;;16.30;41.80;;;;;;5053539;28;20036;-77
2023/08/19 00:50:57;;;;;;;1.88;0.85;;;16.50;41.40;;;;;;5052964;28;20017;-77
2023/08/19 00:53:25;;;;;;;2.80;0.60;;;16.60;41.60;;;;;;5052534;28;20379;-77
2023/08/19 00:55:53;;;;;;;2.50;0.70;;;16.50;40.40;;;;;;5053107;28;20053;-80
2023/08/19 00:58:21;;;;;;;3.90;0.82;;;16.70;40.80;;;;;;5053005;28;20060;-77
2023/08/19 01:00:49;;;;;;;3.97;0.70;;;16.80;41.10;;;;;;5052860;28;20107;-78
2023/08/19 01:03:17;;;;;;;4.28;0.90;;;17.00;41.00;;;;;;5053056;28;20030;-78
2023/08/19 01:06:01;;;;;;;7.15;1.05;;;17.20;40.70;;;;;;5052895;28;20024;-77
2023/08/19 01:08:43;;;;;;;3.13;1.00;;;17.30;39.70;;;;;;5051642;28;20059;-78
2023/08/19 01:11:26;;;;;;;2.95;0.80;;;17.30;40.20;;;;;;5052782;28;20017;-78
2023/08/19 01:14:36;;;;;;;2.00;0.60;;;17.50;39.40;;;;;;5052731;28;20031;-79
2023/08/19 01:17:05;;;;;;;1.88;0.57;;;17.60;39.10;;;;;;5052122;28;20029;-77
2023/08/19 01:19:33;;;;;;;1.73;0.63;;;17.70;39.00;;;;;;5052240;28;20471;-78
2023/08/19 01:22:09;;;;;;;4.03;0.70;;;17.70;39.50;;;;;;5052717;28;20029;-79
2023/08/19 01:24:39;;;;;;;4.45;0.90;;;17.80;38.50;;;;;;5052710;28;20083;-79
2023/08/19 01:27:21;;;;;;;3.70;0.85;;;17.80;38.80;;;;;;5052647;28;20434;-77
2023/08/19 01:29:49;;;;;;;1.73;0.70;;;18.00;38.40;;;;;;5052500;28;20383;-78
2023/08/19 01:32:17;;;;;;;3.30;0.80;;;17.90;38.60;;;;;;5052476;28;20025;-82
2023/08/19 01:34:46;;;;;;;2.85;0.90;;;17.90;37.90;;;;;;5052413;28;20104;-78
2023/08/19 01:37:23;;;;;;;2.58;0.60;;;17.90;37.10;;;;;;5052500;28;20427;-79
2023/08/19 01:39:50;;;;;;;3.50;0.80;;;17.90;38.20;;;;;;5052466;28;20044;-78
2023/08/19 01:42:20;;;;;;;2.70;0.50;;;18.00;38.30;;;;;;5052528;28;20024;-83
2023/08/19 01:44:48;;;;;;;2.53;0.60;;;18.00;37.90;;;;;;5052387;28;20025;-81
2023/08/19 01:47:19;;;;;;;10.60;1.52;;;17.90;37.70;;;;;;5052311;28;20025;-78
2023/08/19 01:49:47;;;;;;;1.80;0.50;;;17.80;38.30;;;;;;5052422;28;20033;-78
2023/08/19 01:52:15;;;;;;;0.95;0.50;;;17.70;38.00;;;;;;5052453;28;20468;-78
2023/08/19 01:54:43;;;;;;;2.95;1.00;;;17.70;37.30;;;;;;5052008;28;20037;-79
2023/08/19 01:57:10;;;;;;;2.65;0.65;;;17.70;38.90;;;;;;5052212;28;20170;-78
2023/08/19 01:59:37;;;;;;;2.17;0.80;;;17.70;37.70;;;;;;5052210;28;20037;-78
2023/08/19 02:02:05;;;;;;;3.13;0.90;;;17.50;37.50;;;;;;5052196;28;20059;-79
2023/08/19 02:04:33;;;;;;;2.83;0.50;;;17.50;38.40;;;;;;5052528;28;20053;-78
2023/08/19 02:07:00;;;;;;;3.85;0.88;;;17.50;38.00;;;;;;5055778;28;20063;-78
2023/08/19 02:09:29;;;;;;;1.77;0.50;;;17.50;37.70;;;;;;5056243;28;20427;-78
2023/08/19 02:11:56;;;;;;;3.35;0.55;;;17.40;38.30;;;;;;5055912;28;20032;-78
2023/08/19 02:14:23;;;;;;;1.55;0.50;;;17.40;38.10;;;;;;5056028;28;20048;-79
2023/08/19 02:16:51;;;;;;;2.10;0.60;;;17.60;39.20;;;;;;5054300;28;20470;-78
2023/08/19 02:19:18;;;;;;;5.40;0.77;;;17.60;38.60;;;;;;5055555;28;20411;-79
2023/08/19 02:21:45;;;;;;;2.65;0.55;;;17.60;39.20;;;;;;5055884;28;20032;-78
2023/08/19 02:24:13;;;;;;;1.77;0.93;;;17.70;38.80;;;;;;5055876;28;20029;-78
2023/08/19 02:26:40;;;;;;;3.33;0.57;;;17.70;39.10;;;;;;5055460;28;20070;-76
2023/08/19 02:29:08;;;;;;;5.53;1.17;;;17.70;37.90;;;;;;5055785;28;20432;-77
2023/08/19 02:31:37;;;;;;;1.08;0.70;;;17.70;38.40;;;;;;5055593;28;20131;-77
2023/08/19 02:34:05;;;;;;;2.25;0.90;;;17.60;38.70;;;;;;5054362;28;20410;-77
2023/08/19 02:36:32;;;;;;;2.00;1.05;;;17.70;39.20;;;;;;5055405;28;20029;-80
2023/08/19 02:38:59;;;;;;;1.80;0.90;;;17.70;39.20;;;;;;5055264;28;20037;-79
2023/08/19 02:41:27;;;;;;;1.50;0.63;;;17.80;39.50;;;;;;5055403;28;20031;-78
2023/08/19 02:43:55;;;;;;;3.05;0.77;;;17.90;39.10;;;;;;5055478;28;20079;-78
2023/08/19 02:46:22;;;;;;;2.17;0.75;;;17.90;39.60;;;;;;5055466;28;20112;-79
2023/08/19 02:48:49;;;;;;;2.15;0.80;;;18.00;39.60;;;;;;5055243;28;20108;-79
2023/08/19 02:51:17;;;;;;;4.35;0.93;;;18.10;39.50;;;;;;5055403;28;20021;-79
2023/08/19 02:53:44;;;;;;;2.72;0.90;;;18.20;40.40;;;;;;5055252;28;20029;-78
2023/08/19 02:56:11;;;;;;;3.47;0.80;;;18.20;39.90;;;;;;5055341;28;20020;-79
2023/08/19 02:58:39;;;;;;;2.28;1.13;;;18.30;39.80;;;;;;5055048;28;20029;-82
2023/08/19 03:01:06;;;;;;;1.77;0.80;;;18.40;40.40;;;;;;5055021;28;20563;-78
2023/08/19 03:03:34;;;;;;;4.30;0.82;;;18.40;40.50;;;;;;5055499;28;20044;-78
2023/08/19 03:06:03;;;;;;;2.22;0.63;;;18.50;38.60;;;;;;5054979;28;20379;-77
2023/08/19 03:08:30;;;;;;;1.52;0.68;;;18.40;39.40;;;;;;5054945;28;20029;-77
2023/08/19 03:10:58;;;;;;;3.17;0.80;;;18.50;40.00;;;;;;5054697;28;20032;-80
2023/08/19 03:13:25;;;;;;;4.03;0.82;;;18.60;39.60;;;;;;5054921;28;20099;-80
2023/08/19 03:15:52;;;;;;;3.50;0.70;;;18.60;40.20;;;;;;5054427;28;20463;-76
2023/08/19 03:18:20;;;;;;;1.67;0.82;;;18.50;39.10;;;;;;5054604;28;20040;-74
2023/08/19 03:20:58;;;;;;;1.70;0.70;;;18.40;39.60;;;;;;5054451;28;20111;-76
2023/08/19 03:23:26;;;;;;;2.08;0.75;;;18.40;39.80;;;;;;5054856;28;20033;-76
2023/08/19 03:25:56;;;;;;;2.70;1.00;;;18.40;39.60;;;;;;5054858;28;20059;-77
2023/08/19 03:28:23;;;;;;;3.33;0.70;;;18.30;39.50;;;;;;5054697;28;20032;-75
2023/08/19 03:30:50;;;;;;;1.48;0.50;;;18.20;39.60;;;;;;5054362;28;20110;-81
2023/08/19 03:33:18;;;;;;;1.73;1.20;;;18.20;40.40;;;;;;5054532;28;20021;-74
2023/08/19 03:35:45;;;;;;;3.28;0.80;;;18.30;40.10;;;;;;5054567;28;20150;-76
2023/08/19 03:38:14;;;;;;;3.10;0.93;;;18.40;40.30;;;;;;5054417;28;20028;-75
2023/08/19 03:40:41;;;;;;;1.15;0.60;;;18.50;40.40;;;;;;5054303;28;20017;-75
2023/08/19 03:43:10;;;;;;;5.35;0.60;;;18.50;40.60;;;;;;5054246;28;20025;-75
2023/08/19 03:45:37;;;;;;;2.45;0.55;;;18.50;39.80;;;;;;5054017;28;20056;-75
2023/08/19 03:48:05;;;;;;;2.80;0.60;;;18.40;40.00;;;;;;5054176;28;20028;-77
2023/08/19 03:50:32;;;;;;;4.05;0.70;;;18.30;40.20;;;;;;5054403;28;20040;-77
2023/08/19 03:53:00;;;;;;;3.50;0.77;;;18.30;40.50;;;;;;5054050;28;20103;-74
2023/08/19 03:55:27;;;;;;;5.65;1.42;;;18.20;41.20;;;;;;5054156;28;20483;-74
2023/08/19 03:57:55;;;;;;;2.47;0.95;;;18.20;41.50;;;;;;5054127;28;20047;-76
2023/08/19 04:00:22;;;;;;;0.77;0.50;;;18.20;41.90;;;;;;5056534;28;20503;-76
2023/08/19 04:02:50;;;;;;;1.75;0.55;;;18.20;42.50;;;;;;5053798;28;20082;-78
2023/08/19 04:05:17;;;;;;;1.55;0.50;;;18.20;41.90;;;;;;5052791;28;20111;-77
2023/08/19 04:07:45;;;;;;;1.63;0.82;;;18.20;41.60;;;;;;5053945;28;20025;-76
2023/08/19 04:10:12;;;;;;;2.30;0.73;;;18.10;42.30;;;;;;5053988;28;20100;-75
2023/08/19 04:12:40;;;;;;;2.00;0.63;;;18.10;42.40;;;;;;5053931;28;20024;-75
2023/08/19 04:15:09;;;;;;;1.55;0.70;;;18.10;42.50;;;;;;5053796;28;20166;-79
2023/08/19 04:17:36;;;;;;;1.90;0.60;;;18.10;42.00;;;;;;5053374;28;20059;-78
2023/08/19 04:20:13;;;;;;;1.88;0.65;;;18.10;42.70;;;;;;5053595;28;20045;-80
2023/08/19 04:22:40;;;;;;;1.17;0.50;;;18.00;41.90;;;;;;5053523;28;20025;-74
2023/08/19 04:25:08;;;;;;;3.15;0.93;;;18.00;42.10;;;;;;5054693;28;20094;-76
2023/08/19 04:27:36;;;;;;;2.83;0.80;;;18.00;42.30;;;;;;5053119;28;20020;-76
2023/08/19 04:30:05;;;;;;;4.40;0.75;;;18.00;42.80;;;;;;5053767;28;20024;-76
2023/08/19 04:32:32;;;;;;;0.95;0.40;;;18.00;42.70;;;;;;5053577;28;20028;-76
2023/08/19 04:34:59;;;;;;;3.13;0.60;;;18.00;43.80;;;;;;5053213;28;20025;-75
2023/08/19 04:37:27;;;;;;;1.70;0.65;;;18.10;43.50;;;;;;5053261;28;20032;-79
2023/08/19 04:39:54;;;;;;;2.67;0.60;;;18.10;43.50;;;;;;5053443;28;20025;-76
2023/08/19 04:42:21;;;;;;;1.15;0.50;;;18.20;42.40;;;;;;5053258;28;20021;-75
2023/08/19 04:44:49;;;;;;;1.02;0.50;;;18.10;43.30;;;;;;5054377;28;20025;-78
2023/08/19 04:47:16;;;;;;;2.28;0.60;;;18.20;43.70;;;;;;5054144;28;20036;-75
2023/08/19 04:49:44;;;;;;;3.40;0.75;;;18.10;43.30;;;;;;5053923;28;20028;-76
2023/08/19 04:52:11;;;;;;;2.35;0.70;;;18.10;43.20;;;;;;5052200;28;20067;-75
2023/08/19 04:54:39;;;;;;;2.15;0.90;;;18.10;43.00;;;;;;5053146;28;20021;-75
2023/08/19 04:57:06;;;;;;;1.55;0.70;;;18.00;43.00;;;;;;5053055;28;20047;-75
2023/08/19 04:59:34;;;;;;;1.08;0.50;;;18.10;42.70;;;;;;5052964;28;20040;-76
2023/08/19 05:02:02;;;;;;;1.42;0.57;;;18.20;43.50;;;;;;5052849;28;20029;-77
2023/08/19 05:04:29;;;;;;;0.75;0.50;;;18.30;43.20;;;;;;5053066;28;20040;-75
2023/08/19 05:06:56;;;;;;;1.08;0.40;;;18.50;42.90;;;;;;5052704;28;20056;-76
2023/08/19 05:09:24;;;;;;;0.88;0.50;;;18.50;42.70;;;;;;5052728;28;20091;-80
2023/08/19 05:11:51;;;;;;;1.25;0.52;;;18.50;42.80;;;;;;5052759;28;20037;-77
2023/08/19 05:14:18;;;;;;;1.60;0.50;;;18.50;42.90;;;;;;5052413;28;20383;-75
2023/08/19 05:16:46;;;;;;;1.17;0.50;;;18.50;43.00;;;;;;5052285;28;20123;-76
2023/08/19 05:19:19;;;;;;;0.57;0.47;;;18.70;43.10;;;;;;5052472;28;20045;-74
2023/08/19 05:21:48;;;;;;;2.15;0.60;;;18.70;43.40;;;;;;5052716;28;20021;-77
2023/08/19 05:24:16;;;;;;;0.52;0.50;;;18.80;43.40;;;;;;5052854;28;20029;-76
2023/08/19 05:26:44;;;;;;;2.17;0.65;;;18.80;43.00;;;;;;5052554;28;20021;-81
2023/08/19 05:29:16;;;;;;;4.32;0.90;;;18.80;42.90;;;;;;5052742;28;20025;-76
2023/08/19 05:31:43;;;;;;;1.77;0.90;;;18.90;43.40;;;;;;5052695;28;20025;-81
2023/08/19 05:34:11;;;;;;;1.10;0.68;;;18.90;43.30;;;;;;5052509;28;20082;-75
2023/08/19 05:36:38;;;;;;;2.90;0.90;;;18.90;42.70;;;;;;5052636;28;20025;-75
2023/08/19 05:39:06;;;;;;;2.72;1.17;;;18.90;42.50;;;;;;5053829;28;20032;-75
2023/08/19 05:41:34;;;;;;;2.47;1.25;;;18.90;43.40;;;;;;5056596;28;20384;-75
2023/08/19 05:44:01;;;;;;;2.33;1.05;;;18.90;43.40;;;;;;5056725;28;20027;-75
2023/08/19 05:46:29;;;;;;;2.80;1.30;;;18.90;43.50;;;;;;5055247;28;20021;-75
2023/08/19 05:48:56;;;;;;;1.80;1.20;;;18.90;43.30;;;;;;5055207;28;20035;-76
2023/08/19 05:51:24;;;;;;;3.72;1.40;;;18.90;43.80;;;;;;5056654;28;20025;-74
2023/08/19 05:53:54;;;;;;;2.88;1.10;;;18.90;43.50;;;;;;5056603;28;20017;-75
2023/08/19 05:56:21;;;;;;;1.60;1.15;;;18.70;43.40;;;;;;5056723;28;20021;-76
2023/08/19 05:58:48;;;;;;;3.60;1.33;;;18.70;43.30;;;;;;5056391;28;20063;-75
2023/08/19 06:01:16;;;;;;;1.45;1.13;;;18.50;43.50;;;;;;5056659;28;20073;-77
2023/08/19 06:03:45;;;;;;;3.03;1.52;;;18.40;44.10;;;;;;5057005;28;20419;-76
2023/08/19 06:06:13;;;;;;;1.83;1.10;;;18.30;44.80;;;;;;5056479;28;20049;-75
2023/08/19 06:08:41;;;;;;;3.58;1.05;;;18.30;44.70;;;;;;5055960;28;20029;-75
2023/08/19 06:11:09;;;;;;;2.30;1.15;;;18.30;44.70;;;;;;5055106;28;20402;-75
2023/08/19 06:13:37;;;;;;;3.60;1.10;;;18.20;44.20;;;;;;5056222;28;20040;-75
2023/08/19 06:16:06;;;;;;;2.90;1.10;;;18.20;44.30;;;;;;5056597;28;20025;-74
2023/08/19 06:18:34;;;;;;;2.60;1.10;;;18.20;44.80;;;;;;5055845;28;20041;-76
2023/08/19 06:21:03;;;;;;;3.60;1.20;;;18.10;44.60;;;;;;5054017;28;20041;-76
2023/08/19 06:23:30;;;;;;;2.00;1.10;;;18.10;44.80;;;;;;5056098;28;20021;-75
2023/08/19 06:25:58;;;;;;;2.33;0.98;;;18.10;45.50;;;;;;5055973;28;20057;-75
2023/08/19 06:28:28;;;;;;;1.80;1.10;;;18.00;44.80;;;;;;5055953;28;20537;-75
2023/08/19 06:30:56;;;;;;;1.13;1.02;;;18.00;45.10;;;;;;5055674;28;20104;-75
2023/08/19 06:33:27;;;;;;;1.80;1.00;;;17.90;45.20;;;;;;5054647;28;20033;-76
2023/08/19 06:35:58;;;;;;;1.65;1.00;;;17.80;45.80;;;;;;5055828;28;20025;-76
2023/08/19 06:38:29;;;;;;;2.78;1.10;;;17.80;46.00;;;;;;5055720;28;20032;-79
2023/08/19 06:40:59;;;;;;;3.80;1.10;;;17.80;45.80;;;;;;5055326;28;20391;-75
2023/08/19 06:43:27;;;;;;;2.40;1.00;;;17.70;46.10;;;;;;5055698;28;20371;-75
2023/08/19 06:45:57;;;;;;;4.63;1.30;;;17.70;46.30;;;;;;5055479;28;20100;-75
2023/08/19 06:48:25;;;;;;;5.75;1.02;;;17.60;46.70;;;;;;5055658;28;20108;-76
2023/08/19 06:50:54;;;;;;;1.25;0.80;;;17.70;46.90;;;;;;5054519;28;20025;-80
2023/08/19 06:53:22;;;;;;;0.98;0.60;;;17.60;46.80;;;;;;5055344;28;20016;-75
2023/08/19 06:56:11;;;;;;;1.33;0.80;;;17.60;46.80;;;;;;5055405;28;20032;-75
2023/08/19 06:58:45;;;;;;;1.17;0.70;;;17.50;46.90;;;;;;5055292;28;20387;-75
2023/08/19 07:01:19;;;;;;;1.00;0.50;;;17.50;46.90;;;;;;5053958;28;20027;-75
2023/08/19 07:03:50;;;;;;;3.13;1.02;;;17.40;46.80;;;;;;5055495;28;20036;-75
2023/08/19 07:06:21;;;;;;;1.23;0.93;;;17.30;46.80;;;;;;5054261;28;20021;-76
2023/08/19 07:08:49;;;;;;;1.45;0.80;;;17.20;47.20;;;;;;5054972;28;20025;-76
2023/08/19 07:11:17;;;;;;;1.90;0.90;;;17.10;47.50;;;;;;5055257;28;20172;-77
2023/08/19 07:13:45;;;;;;;2.08;0.90;;;17.00;48.00;;;;;;5055192;28;20479;-76
2023/08/19 07:16:15;;;;;;;0.70;0.70;;;17.00;48.30;;;;;;5054833;28;20033;-78
2023/08/19 07:18:47;;;;;;;1.05;0.60;;;16.90;48.20;;;;;;5054919;28;20136;-79
2023/08/19 07:21:15;;;;;;;0.85;0.57;;;16.80;48.60;;;;;;5055114;28;20017;-78
2023/08/19 07:23:45;;;;;;;1.40;0.65;;;16.70;49.00;;;;;;5055302;28;20056;-79
2023/08/19 07:26:13;;;;;;;2.17;0.70;;;16.60;49.10;;;;;;5055180;28;20025;-80
2023/08/19 07:28:41;;;;;;;1.30;0.77;;;16.60;49.70;;;;;;5053146;28;20025;-77
2023/08/19 07:31:11;;;;;;;1.20;0.60;;;16.50;49.40;;;;;;5054648;28;20024;-77
2023/08/19 07:33:38;;;;;;;1.42;0.90;;;16.50;49.90;;;;;;5053935;28;20043;-77
2023/08/19 07:36:06;;;;;;;1.23;0.63;;;16.40;50.00;;;;;;5054394;28;20020;-78
2023/08/19 07:38:33;;;;;;;1.60;0.80;;;16.40;50.30;;;;;;5054667;28;20488;-83
2023/08/19 07:41:01;;;;;;;4.70;0.70;;;16.40;50.30;;;;;;5054371;28;20028;-78
2023/08/19 07:43:28;;;;;;;1.60;0.73;;;16.30;50.60;;;;;;5054595;28;20479;-77
2023/08/19 07:45:55;;;;;;;0.70;0.70;;;16.30;50.70;;;;;;5055379;28;20123;-76
2023/08/19 07:48:23;;;;;;;1.10;0.60;;;16.20;50.70;;;;;;5055120;28;20033;-77
2023/08/19 07:50:50;;;;;;;1.50;0.68;;;16.20;50.70;;;;;;5055262;28;20021;-76
2023/08/19 07:53:18;;;;;;;0.70;0.70;;;16.20;50.80;;;;;;5054681;28;20029;-76
2023/08/19 07:55:47;;;;;;;2.03;0.70;;;16.20;51.10;;;;;;5054577;28;20024;-78
2023/08/19 07:58:15;;;;;;;2.50;0.70;;;16.10;51.40;;;;;;5053299;28;20081;-76
2023/08/19 08:00:42;;;;;;;0.50;0.50;;;16.10;51.40;;;;;;5054052;28;20100;-77
2023/08/19 08:03:10;;;;;;;1.40;0.60;;;16.10;51.60;;;;;;5054516;28;20040;-77
2023/08/19 08:05:37;;;;;;;1.08;0.60;;;16.10;51.50;;;;;;5054357;28;20494;-74
2023/08/19 08:08:05;;;;;;;1.25;0.70;;;16.00;51.60;;;;;;5055608;28;20051;-75
2023/08/19 08:10:32;;;;;;;1.45;0.93;;;15.90;52.00;;;;;;5057061;28;20056;-76
2023/08/19 08:13:01;;;;;;;1.40;0.80;;;15.90;52.20;;;;;;5070095;28;20024;-76
2023/08/19 08:15:29;;;;;;;1.15;0.60;;;16.00;52.10;;;;;;5075327;28;20031;-77
2023/08/19 08:17:57;;;;;;;1.73;0.65;;;15.90;52.20;;;;;;5060715;28;20517;-76
2023/08/19 08:20:24;;;;;;;1.55;0.77;;;15.90;52.20;;;;;;5056405;28;20033;-75
2023/08/19 08:22:51;;;;;;;1.52;1.00;;;15.90;52.40;;;;;;5055886;28;20375;-75
2023/08/19 08:25:19;;;;;;;1.60;0.70;;;15.90;52.50;;;;;;5055992;28;20470;-76
2023/08/19 08:27:46;;;;;;;2.53;1.30;;;15.90;52.50;;;;;;5056254;28;20082;-75
2023/08/19 08:30:14;;;;;;;1.40;0.95;;;15.90;52.80;;;;;;5055691;28;20387;-77
2023/08/19 08:32:42;;;;;;;2.42;0.77;;;15.80;53.00;;;;;;5056217;28;20028;-76
2023/08/19 08:35:09;;;;;;;1.00;0.90;;;15.80;53.30;;;;;;5057118;28;20020;-76
2023/08/19 08:37:36;;;;;;;2.17;0.70;;;15.70;53.40;;;;;;5056221;28;20117;-76
2023/08/19 08:40:04;;;;;;;1.17;0.80;;;15.70;53.20;;;;;;5056954;28;20472;-76
2023/08/19 08:42:32;;;;;;;0.68;0.68;;;15.70;53.50;;;;;;5056863;28;20468;-76
2023/08/19 08:45:01;;;;;;;0.90;0.70;;;15.70;53.70;;;;;;5057128;28;20347;-76
2023/08/19 08:47:33;;;;;;;1.77;1.10;;;15.60;53.70;;;;;;5071833;28;20095;-75
2023/08/19 08:50:02;;;;;;;1.02;0.77;;;15.60;54.40;;;;;;5056902;28;20025;-75
2023/08/19 08:52:29;;;;;;;0.55;0.50;;;15.60;54.40;;;;;;5057668;28;20025;-76
2023/08/19 08:54:59;;;;;;;0.75;0.60;;;15.50;54.40;;;;;;5055196;28;20037;-76
2023/08/19 08:57:27;;;;;;;0.80;0.60;;;15.50;54.70;;;;;;5056347;28;20021;-75
2023/08/19 08:59:54;;;;;;;1.63;0.77;;;15.60;54.40;;;;;;5054539;28;20085;-76
2023/08/19 09:02:23;;;;;;;0.77;0.75;;;15.60;54.70;;;;;;5057991;28;20058;-76
2023/08/19 09:04:53;;;;;;;2.03;0.73;;;15.60;54.60;;;;;;5069860;28;20028;-75
2023/08/19 09:07:30;;;;;;;2.95;0.90;;;15.50;54.60;;;;;;5058433;28;20016;-77
2023/08/19 09:09:59;;;;;;;2.30;1.20;;;15.50;54.70;;;;;;5062761;28;20025;-76
2023/08/19 09:12:27;;;;;;;1.00;0.70;;;15.50;55.10;;;;;;5061728;28;20043;-75
2023/08/19 09:15:04;;;;;;;1.77;0.65;;;15.40;54.90;;;;;;5055910;28;20029;-76
2023/08/19 09:17:34;;;;;;;1.08;0.73;;;15.30;55.20;;;;;;5052801;28;20051;-79
2023/08/19 09:20:03;;;;;;;2.13;0.70;;;15.40;55.40;;;;;;5054057;28;20124;-77
2023/08/19 09:22:31;;;;;;;2.38;1.10;;;15.30;55.10;;;;;;5054664;28;20503;-76
2023/08/19 09:24:58;;;;;;;1.33;0.90;;;15.40;55.30;;;;;;5054253;28;20426;-75
2023/08/19 09:27:28;;;;;;;1.73;1.02;;;15.40;55.40;;;;;;5054898;28;20021;-75
2023/08/19 09:29:56;;;;;;;1.20;1.00;;;15.30;55.80;;;;;;5058147;28;20032;-76
2023/08/19 09:32:32;;;;;;;1.60;1.00;;;15.30;55.50;;;;;;5065847;28;20029;-75
2023/08/19 09:35:12;;;;;;;2.45;0.90;;;15.40;55.60;;;;;;5056171;28;20479;-76
2023/08/19 09:37:40;;;;;;;1.50;0.88;;;15.40;55.60;;;;;;5054390;28;20475;-76
2023/08/19 09:40:12;;;;;;;2.97;1.30;;;15.30;56.10;;;;;;5053429;28;20037;-76
2023/08/19 09:42:46;;;;;;;1.45;0.90;;;15.30;56.30;;;;;;5053119;28;20120;-77
2023/08/19 09:45:18;;;;;;;0.75;0.70;;;15.30;56.30;;;;;;5054267;28;20024;-76
2023/08/19 09:47:50;;;;;;;1.00;0.77;;;15.30;56.20;;;;;;5055135;28;20087;-76
2023/08/19 09:50:23;;;;;;;1.92;1.38;;;15.30;56.10;;;;;;5062521;28;20204;-76
2023/08/19 09:52:58;;;;;;;1.95;1.15;;;15.30;56.30;;;;;;5058184;28;20013;-75
2023/08/19 09:55:32;;;;;;;3.65;1.50;;;15.30;56.20;;;;;;5061943;28;20021;-75
2023/08/19 09:58:00;;;;;;;4.68;1.42;;;15.30;56.30;;;;;;5052838;28;20026;-76
2023/08/19 10:00:28;;;;;;;2.38;1.42;;;15.30;56.50;;;;;;5042769;28;20049;-75
2023/08/19 10:02:57;;;;;;;3.65;1.42;;;15.30;56.60;;;;;;5051792;28;20020;-76
2023/08/19 10:05:28;;;;;;;1.50;1.13;;;15.30;56.60;;;;;;5053039;28;20056;-75
2023/08/19 10:08:01;;;;;;;2.65;1.10;;;15.30;57.10;;;;;;5053643;28;20017;-77
2023/08/19 10:10:32;;;;;;;2.28;1.15;;;15.30;56.50;;;;;;5068322;28;20112;-80
2023/08/19 10:13:03;;;;;;;2.42;1.20;;;15.30;57.00;;;;;;5052469;28;20156;-75
2023/08/19 10:15:33;;;;;;;2.67;1.55;;;15.40;56.90;;;;;;5053567;28;20025;-76
2023/08/19 10:18:07;;;;;;;1.95;1.50;;;15.40;57.00;;;;;;5054451;28;20032;-80
2023/08/19 10:20:38;;;;;;;2.10;1.33;;;15.30;56.90;;;;;;5060577;28;20024;-76
2023/08/19 10:23:07;;;;;;;2.00;1.30;;;15.30;56.70;;;;;;5051875;28;20021;-86
2023/08/19 10:25:42;;;;;;;1.48;1.00;;;15.30;56.90;;;;;;5062915;28;20106;-77
2023/08/19 10:28:22;;;;;;;1.50;1.20;;;15.30;57.10;;;;;;5054174;28;20053;-77
2023/08/19 10:31:12;;;;;;;2.22;1.30;;;15.20;57.40;;;;;;5056063;28;20025;-79
2023/08/19 10:33:50;;;;;;;2.90;1.80;;;15.20;57.00;;;;;;5054082;28;20017;-78
2023/08/19 10:36:26;;;;;;;3.15;2.03;;;15.20;57.10;;;;;;5056160;28;20091;-82
2023/08/19 10:39:00;;;;;;;2.88;1.17;;;15.20;57.30;;;;;;5055045;28;20404;-77
2023/08/19 10:41:29;;;;;;;1.50;0.90;;;15.20;57.30;;;;;;5062183;28;20020;-78
2023/08/19 10:44:01;;;;;;;3.55;1.08;;;15.20;57.50;;;;;;5053088;28;20021;-78
2023/08/19 10:46:35;;;;;;;1.92;1.10;;;15.20;57.60;;;;;;5055591;28;20036;-77
2023/08/19 10:49:03;;;;;;;3.50;1.10;;;15.20;57.60;;;;;;5055412;28;20025;-79
2023/08/19 10:51:51;;;;;;;2.22;1.20;;;15.20;57.40;;;;;;5068559;28;20028;-77
2023/08/19 10:54:40;;;;;;;1.65;0.95;;;15.20;57.50;;;;;;5054921;28;20103;-79
2023/08/19 10:57:27;;;;;;;1.60;1.15;;;15.10;57.80;;;;;;5055283;28;20108;-81
2023/08/19 10:59:59;;;;;;;1.58;1.42;;;15.10;57.90;;;;;;5051066;28;20507;-79
2023/08/19 11:02:29;;;;;;;1.90;1.48;;;15.10;58.10;;;;;;5041857;28;20017;-80
2023/08/19 11:04:58;;;;;;;2.72;1.80;;;15.00;58.10;;;;;;5055394;28;20482;-77
2023/08/19 11:07:27;;;;;;;2.45;1.27;;;15.00;58.30;;;;;;5041886;28;20029;-80
2023/08/19 11:09:55;;;;;;;2.03;1.40;;;15.00;58.30;;;;;;5035281;28;20503;-79
2023/08/19 11:12:26;;;;;;;2.03;1.38;;;15.00;58.70;;;;;;5051098;28;20048;-78
2023/08/19 11:14:57;;;;;;;1.73;1.10;;;15.00;58.40;;;;;;5074993;28;20016;-78
2023/08/19 11:17:32;;;;;;;2.38;1.58;;;15.00;58.40;;;;;;5074826;28;20017;-80
2023/08/19 11:20:10;;;;;;;2.28;1.30;;;15.00;58.40;;;;;;5070214;28;20102;-81
2023/08/19 11:22:42;;;;;;;3.13;1.40;;;15.00;58.10;;;;;;5070549;28;20037;-79
2023/08/19 11:25:12;;;;;;;2.13;1.50;;;15.00;58.70;;;;;;5053664;28;20071;-78
2023/08/19 11:27:39;;;;;;;1.50;1.17;;;15.00;58.50;;;;;;5054585;28;20179;-79
2023/08/19 11:30:11;;;;;;;2.85;1.40;;;15.00;58.70;;;;;;5054614;28;20021;-78
2023/08/19 11:32:44;;;;;;;2.25;1.33;;;15.00;58.70;;;;;;5054569;28;20033;-78
2023/08/19 11:35:12;;;;;;;1.95;1.10;;;14.90;58.80;;;;;;5054488;28;20033;-78
2023/08/19 11:37:44;;;;;;;2.05;1.23;;;15.00;58.60;;;;;;5054242;28;20021;-81
2023/08/19 11:40:16;;;;;;;2.65;1.27;;;15.00;58.70;;;;;;5054521;28;20426;-77
2023/08/19 11:42:44;;;;;;;1.98;1.30;;;14.90;58.70;;;;;;5054452;28;20033;-77
2023/08/19 11:45:12;;;;;;;2.17;1.20;;;14.90;58.80;;;;;;5059808;28;20375;-79
2023/08/19 11:47:39;;;;;;;2.88;1.45;;;14.90;59.10;;;;;;5060729;28;20019;-78
2023/08/19 11:50:07;;;;;;;1.83;1.10;;;14.90;58.90;;;;;;5054515;28;20137;-80
2023/08/19 11:52:50;;;;;;;1.55;0.90;;;14.90;59.10;;;;;;5054575;28;20155;-77
2023/08/19 11:55:17;;;;;;;2.03;1.05;;;14.90;59.10;;;;;;5053852;28;20037;-78
2023/08/19 11:57:44;;;;;;;1.42;1.20;;;14.80;59.00;;;;;;5052854;28;20029;-77
2023/08/19 12:00:17;;;;;;;2.13;1.45;;;14.80;59.10;;;;;;5054183;28;20029;-79
2023/08/19 12:02:48;;;;;;;1.80;1.10;;;14.80;59.30;;;;;;5054294;28;20029;-80
2023/08/19 12:05:26;;;;;;;2.63;1.00;;;14.80;59.40;;;;;;5053176;28;20372;-84
2023/08/19 12:07:54;;;;;;;2.05;1.20;;;14.80;59.40;;;;;;5054676;28;20028;-78
2023/08/19 12:10:21;;;;;;;2.05;1.10;;;14.80;59.40;;;;;;5053958;28;20554;-78
2023/08/19 12:13:01;;;;;;;1.52;1.30;;;14.80;59.40;;;;;;5052544;28;20424;-81
2023/08/19 12:15:28;;;;;;;2.05;1.10;;;14.80;59.60;;;;;;5051736;28;20025;-79
2023/08/19 12:17:56;;;;;;;1.17;0.85;;;14.80;59.70;;;;;;5053679;28;20032;-78
2023/08/19 12:20:23;;;;;;;1.48;0.90;;;14.80;59.50;;;;;;5053460;28;20128;-77
2023/08/19 12:22:59;;;;;;;2.20;0.90;;;14.70;59.70;;;;;;5053873;28;20021;-78
2023/08/19 12:25:27;;;;;;;1.27;0.95;;;14.70;60.00;;;;;;5051599;28;20053;-79
2023/08/19 12:27:56;;;;;;;1.20;0.77;;;14.80;60.00;;;;;;5053259;28;20027;-78
2023/08/19 12:30:23;;;;;;;1.35;0.80;;;14.80;60.00;;;;;;5053327;28;20487;-82
2023/08/19 12:32:50;;;;;;;0.82;0.75;;;14.80;60.30;;;;;;5052134;28;20501;-78
2023/08/19 12:35:18;;;;;;;1.13;0.80;;;14.70;60.20;;;;;;5052095;28;20029;-77
2023/08/19 12:37:45;;;;;;;1.65;0.98;;;14.80;60.30;;;;;;5053095;28;20021;-77
2023/08/19 12:40:13;;;;;;;1.20;0.80;;;14.70;60.50;;;;;;5053864;28;20491;-87
2023/08/19 12:42:40;;;;;;;1.77;0.90;;;14.70;60.40;;;;;;5053264;28;20028;-82
2023/08/19 12:45:09;;;;;;;1.35;1.05;;;14.80;60.40;;;;;;5051791;28;20029;-78
2023/08/19 12:47:38;;;;;;;1.23;0.90;;;14.70;60.20;;;;;;5053360;28;20024;-82
2023/08/19 12:50:07;;;;;;;1.38;0.90;;;14.80;60.50;;;;;;5053149;28;20148;-77
2023/08/19 12:52:35;;;;;;;1.35;1.00;;;14.70;60.50;;;;;;5053748;28;20017;-81
2023/08/19 12:55:05;;;;;;;1.98;1.48;;;14.70;60.60;;;;;;5052347;28;20100;-79
2023/08/19 12:57:32;;;;;;;1.23;0.98;;;14.70;60.90;;;;;;5058627;28;20021;-78
2023/08/19 13:00:00;;;;;;;1.38;0.98;;;14.70;60.80;;;;;;5060351;28;20028;-76